^^

Nearby METAR Reports

 

EGHH - Bournemouth Airp, United Kingdom
Distance from station: S 10mi, 17km
Updated: 14/12/2018 16:50
Overcast
Overcast
 Wind from E
Wind: E 9 mph , 15 km/h
Temperature: 4°C
Wind Chill: 1°C
Dew Point: 0°C
Humidity: 75%
Barometer: 1022 hPa
Clouds: Overcast
Visibility: 6 miles , 10 km
Cloud details: Overcast 1006 m
2018/12/14 16:50 EGHH 141650Z 10008KT 9999 OVC033 04/M00 Q1022
EGDM - Boscombe Down, United Kingdom
Distance from station: N 16mi, 26km
Updated: 14/12/2018 16:50
Overcast
Overcast
 Wind from E
Wind: E 9 mph , 15 km/h
Temperature: 2°C
Wind Chill: -2°C
Dew Point: -1°C
Humidity: 81%
Barometer: 1022 hPa
Clouds: Overcast
Visibility: 6 miles , 10 km
Cloud details: Overcast 1128 m
2018/12/14 16:50 EGDM 141650Z AUTO 10008KT 9999 OVC037/// 02/M01 Q1022
 
EGVP - Middle Wallop, United Kingdom
Distance from station: NE 17mi, 27km
Updated: 14/12/2018 16:50
Mostly cloudy
Mostly cloudy
 Wind from E
Wind: E 9 mph , 15 km/h
Temperature: 2°C
Wind Chill: -2°C
Dew Point: -2°C
Humidity: 75%
Barometer: 1022 hPa
Clouds: Mostly cloudy
Visibility: 6 miles , 10 km
Cloud details: Few Clouds 914 m
Mostly cloudy 1158 m
2018/12/14 16:50 EGVP 141650Z AUTO 08008KT 9999 // FEW030/// BKN038/// 02/M02 Q1022
EGHI - Southampton Wx C, United Kingdom
Distance from station: E 19mi, 31km
Updated: 14/12/2018 16:50
Mostly cloudy
Mostly cloudy
 Wind from E
Wind: E 6 mph , 9 km/h
Temperature: 2°C
Wind Chill: -1°C
Dew Point: -2°C
Humidity: 75%
Barometer: 1023 hPa
Clouds: Mostly cloudy
Visibility: 6 miles , 10 km
Cloud details: Mostly cloudy 1280 m
2018/12/14 16:50 EGHI 141650Z 08005KT 9999 BKN042 02/M02 Q1023
 
EGDY - Yeovilton (navy), United Kingdom
Distance from station: W 36mi, 58km
Updated: 14/12/2018 16:50
Overcast
Overcast
 Wind from E
Wind: E 12 mph , 19 km/h
Temperature: 4°C
Wind Chill: 0°C
Dew Point: -1°C
Humidity: 70%
Barometer: 1021 hPa
Clouds: Overcast
Visibility: 6 miles , 10 km
Cloud details: Overcast 975 m
2018/12/14 16:50 EGDY 141650Z AUTO 10010KT 9999 OVC032/// 04/M01 Q1021
EGUO - Colerne Raf, United Kingdom
Distance from station: NNW 41mi, 66km
Updated: 21/03/2018 08:50
NOT Current
Clear
Clear
 Wind from W
Wind: W 6 mph , 9 km/h
Temperature: 5°C
Wind Chill: 3°C
Dew Point: 1°C
Humidity: 76%
Barometer: 1032 hPa
Clouds: Clear
Visibility: 6 miles , 10 km
2018/03/21 08:50 EGUO 210850Z 27005KT 9999 NCD 05/01 Q1032 BLU NOSIG
 
EGVO - Odiham Raf, United Kingdom
Distance from station: ENE 42mi, 68km
Updated: 14/12/2018 16:50
Haze, Partly cloudy
Haze, Partly cloudy
 Wind from ESE
Wind: ESE 7 mph , 11 km/h
Temperature: 0°C
Wind Chill: -4°C
Dew Point: -3°C
Humidity: 80%
Barometer: 1022 hPa
Summary: Haze
Clouds: Partly cloudy
Visibility: 5 miles , 8 km
Cloud details: Partly cloudy 1341 m
2018/12/14 16:50 EGVO 141650Z AUTO 11006KT 8000 HZ SCT044/// M00/M03 Q1022
EGGD - Bristol/Lulsgate, United Kingdom
Distance from station: NW 50mi, 81km
Updated: 14/12/2018 16:50
Mostly cloudy
Mostly cloudy
 Wind from E
Wind: E 13 mph , 20 km/h
Temperature: 1°C
Wind Chill: -4°C
Dew Point: -1°C
Humidity: 87%
Barometer: 1020 hPa
Clouds: Mostly cloudy
Visibility: 6 miles , 10 km
Cloud details: Mostly cloudy 1097 m
2018/12/14 16:50 EGGD 141650Z AUTO 10011KT 9999 BKN036 01/M01 Q1020